Winedale's Hourly Summary for Wednesday, May 16, 2018
Hour Temp
(f)
RH
(%)
Solar Rad.
(MJ/m2)
Rainfall
(in)
Wind
(mph)
5/16/2018 12:00 AM 75 59 0 0 3.86
5/16/2018 1:00 AM 73 66 0 0 3.54
5/16/2018 2:00 AM 71 77 0 0 3.37
5/16/2018 3:00 AM 70 85 0 0 1.72
5/16/2018 4:00 AM 68 90 0 0 1.36
5/16/2018 5:00 AM 68 93 0 0 2.31
5/16/2018 6:00 AM 68 96 0 0 0.28
5/16/2018 7:00 AM 68 96 0.03 0 1.16
5/16/2018 8:00 AM 69 92 0.45 0 2.86
5/16/2018 9:00 AM 72 82 0.99 0 3.43
5/16/2018 10:00 AM 76 74 1.3 0 5.22
5/16/2018 11:00 AM 79 64 2.25 0 4.4
5/16/2018 12:00 PM 82 52 3 0 4.56
5/16/2018 1:00 PM 85 43 3.27 0 4.71
5/16/2018 2:00 PM 88 37 3.35 0 4.55
5/16/2018 3:00 PM 89 30 3.21 0 5.24
5/16/2018 4:00 PM 90 31 2.85 0 5.03
5/16/2018 5:00 PM 91 30 1.48 0 4.21
5/16/2018 6:00 PM 91 30 0.77 0 3.59
5/16/2018 7:00 PM 91 30 0.91 0 3.52
5/16/2018 8:00 PM 89 33 0.29 0 0.66
5/16/2018 9:00 PM 79 49 0 0 0.01
5/16/2018 10:00 PM 77 54 0 0 0.69
5/16/2018 11:00 PM 78 54 0 0 2.51
Data Summary 78 60 24.15 0.00 3.03